Saturday, July 21, 2018, 7:19 PM GMT
Back to Local

CWQH, Lennoxville

Location: , , Canada Lat: 45.367
Local Time: 7:19 PM GMT (19:19 GMT) Lon: -71.817
Time Zone: GMT Elev: 593 ft

Show me the last for .
Show Coded

Time T Td Feel RH Dir Speed Gust Alt SLP Vis Weather Sky Remarks
2018-07-21 19:00 85 52 - 32 140° 6 - - - 0 None
2018-07-21 18:00 83 54 - 37 130° 3 - - - 0 None
2018-07-21 17:00 82 55 - 39 190° 3 - - - 0 None
2018-07-21 16:00 80 59 81 49 170° 5 - - - 0 None
2018-07-21 15:00 78 61 80 56 270° 2 - - - 0 None
2018-07-21 14:00 76 60 78 59 190° 6 - - - 0 None
2018-07-21 13:00 71 60 76 70 220° 1 - - - 0 None
2018-07-21 12:00 66 59 - 79 320° 2 - - - 0 None
2018-07-21 11:00 61 57 - 87 50° 3 - - - 0 None
2018-07-21 10:00 56 55 - 93 70° 6 - - - 0 None
2018-07-21 09:00 56 54 - 91 40° 2 - - - 0 None
2018-07-21 08:00 58 55 - 90 60° 5 - - - 0 None
2018-07-21 07:00 59 55 - 88 70° 5 - - - 0 None
2018-07-21 06:00 61 56 - 84 70° 5 - - - 0 None
2018-07-21 05:00 63 57 - 81 100° 2 - - - 0 None
2018-07-21 04:00 64 57 - 77 190° 1 - - - 0 None
2018-07-21 03:00 68 59 - 73 240° 3 - - - 0 None
2018-07-21 02:00 71 58 76 62 170° 5 - - - 0 None
2018-07-21 01:00 74 60 77 62 150° 2 - - - 0 None
2018-07-21 00:00 78 64 80 62 140° 1 - - - 0 None
2018-07-20 23:00 83 57 83 40 200° 5 - - - 0 None
2018-07-20 22:00 85 54 - 33 210° 2 - - - 0 None
2018-07-20 21:00 85 53 - 32 280° 1 - - - 0 None
2018-07-20 20:00 85 55 - 36 150° 2 - - - 0 None

Support USWX by starting your Amazon purchase here.